Search for airport 
image banner adimage banner adimage banner ad
image banner ad

1NV1 - Fallon Southwest Airpark

Located in Fallon, United States

ICAO - 1NV1, IATA -

Data provided by Airmate  

General information

Coordinates: N39°24'55" W118°50'12"
Elevation is 3950 feet MSL.
Magnetic variation is 16° East
View others Airports in Nevada

Operational data

Special qualification required
Current time UTC:
Current local time:
METAR: KNFL 092156Z 25004KT 10SM FEW090 SCT250 20/M08 A2997 RMK AO2 SLP121 T02001083 $
TAF: TAF KNFL 0823/0923 VRB06KT 9999 FEW250 QNH2994INS FM090300 02007KT 9999 FEW250 QNH2990INS FM091500 35010KT 9999 SCT250 QNH2980INS TEMPO 0919/0923 35014G22KT LAST NO AMDS AFT 0906 NEXT 1007 T04/0913Z T23/0922Z FS30170
View NOTAMs / SUP AIP / TFR affecting this airport [VIEW]
Communications frequencies: [VIEW]

Runways:

RWY identifierQFULength (ft)Width (ft)SurfaceLDA (ft)
17265025GRAVEL
35265025GRAVEL

Airport contact information

Address: Fallon United States

Satellite view of 1NV1